Variável com cirrus com algumas nuvens de trovoada possíveis
Variável com cirrus com algumas nuvens de trovoada possíveis
Variável com cirrus com algumas nuvens de trovoada possíveis
Nublado
Chuva ligeira, trovoadas possíveis
Chuva ligeira, trovoadas possíveis
Chuva ligeira, trovoadas possíveis
Variável com algumas nuvens de trovoada possíveis
Parcialmente enevoado e algumas nuvens cirrus
(°C)
21°
21°
21°
21°
20°
20°
20°
20°
20°
20°
20°
20°
20°
20°
21°
21°
22°
22°
(°C)
22°
22°
21°
21°
21°
21°
21°
21°
22°
NNE
NE
NE
NE
ENE
NE
NNE
NNE
NNE
(km/h)
7-17
7-16
7-13
7-15
8-17
8-19
10-21
10-20
10-23
(mm)
0
0
0
0
0.1
0.1
0.1
0
0
(%)
12
6
7
7
25
25
25
17
17

Elevação do sol

/ -20.7°
sun-icon
UV 6
05:05
20:39
Minguante gibosa (208°)
22:07
07:12

METAR para Hvozdnica (LZZI)

Hora Condições Temperatura/
Ponto de condensação
Vento Visibilidade Tempo Nuvens Pressão Mudança Bruto
VFR 21°C / 17°C 2kt 9700m - Clouds and Visibility OK 1016 - LZZI 222230Z VRB02KT CAVOK 21/17 Q1016
VFR 22°C / 17°C 1kt 9700m - Clouds and Visibility OK 1016 - LZZI 222200Z VRB01KT CAVOK 22/17 Q1016
VFR 22°C / 16°C 2kt 9700m - Clouds and Visibility OK 1016 - LZZI 222130Z VRB02KT CAVOK 22/16 Q1016
VFR 23°C / 17°C 1kt 9700m - Clouds and Visibility OK 1016 - LZZI 222100Z VRB01KT CAVOK 23/17 Q1016
VFR 24°C / 16°C 20º variable 350º to 060º 4kt 9700m - Clouds and Visibility OK 1016 - LZZI 222030Z 02004KT 350V060 CAVOK 24/16 Q1016
VFR 25°C / 16°C 30º variable 360º to 060º 8kt 9700m - Clouds and Visibility OK 1015 - LZZI 222000Z 03008KT 360V060 CAVOK 25/16 Q1015
VFR 25°C / 16°C 70º variable 050º to 130º 10kt 9700m - Few Clouds 6000ft 1015 - LZZI 221930Z 07010KT 050V130 9999 FEW060 25/16 Q1015
VFR 25°C / 17°C 70º variable 340º to 130º 3kt 9700m - Few Clouds 5800ft 1015 - LZZI 221900Z 07003KT 340V130 9999 FEW058 25/17 Q1015
VFR 26°C / 16°C 3kt 9700m - Clouds and Visibility OK 1014 - LZZI 221830Z VRB03KT CAVOK 26/16 Q1014
VFR 27°C / 14°C 40º 5kt 9700m - Clouds and Visibility OK 1013 - LZZI 221800Z 04005KT CAVOK 27/14 Q1013
VFR 27°C / 17°C 2kt 9700m - Clouds and Visibility OK 1013 - LZZI 221730Z VRB02KT CAVOK 27/17 Q1013
VFR 27°C / 18°C 10º variable 340º to 040º 3kt 9700m - Clouds and Visibility OK 1012 - LZZI 221700Z 01003KT 340V040 CAVOK 27/18 Q1012
VFR 30°C / 14°C 10º variable 330º to 060º 4kt 9700m - Clouds and Visibility OK 1012 - LZZI 221630Z 01004KT 330V060 CAVOK 30/14 Q1012
VFR 31°C / 12°C 350º variable 320º to 030º 3kt 9700m - Clouds and Visibility OK 1012 - LZZI 221600Z 35003KT 320V030 CAVOK 31/12 Q1012
VFR 30°C / 13°C 350º variable 290º to 040º 4kt 9700m - Clouds and Visibility OK 1012 - LZZI 221530Z 35004KT 290V040 CAVOK 30/13 Q1012
VFR 30°C / 14°C 30º variable 360º to 060º 4kt 9700m - Clouds and Visibility OK 1012 - LZZI 221500Z 03004KT 360V060 CAVOK 30/14 Q1012
VFR 29°C / 13°C 2kt 9700m - Few Clouds 6000ft 1012 - LZZI 221430Z VRB02KT 9999 FEW060 29/13 Q1012
VFR 30°C / 16°C 250º variable 220º to 310º 5kt 9700m - Few Clouds 5800ft 1012 - LZZI 221400Z 25005KT 220V310 9999 FEW058 30/16 Q1012
VFR 30°C / 16°C 3kt 9700m - Scattered Clouds 5500ft 1012 - LZZI 221330Z VRB03KT 9999 SCT055 30/16 Q1012
VFR 30°C / 17°C 240º variable 200º to 290º 4kt 9700m - Scattered Clouds 5300ft 1012 - LZZI 221300Z 24004KT 200V290 9999 SCT053 30/17 Q1012
VFR 29°C / 15°C 230º variable 130º to 300º 5kt 9700m - Scattered Clouds 5000ft 1012 - LZZI 221230Z 23005KT 130V300 9999 SCT050 29/15 Q1012
VFR 29°C / 16°C 240º variable 220º to 290º 5kt 9700m - Scattered Clouds 4700ft 1012 - LZZI 221200Z 24005KT 220V290 9999 SCT047 29/16 Q1012
VFR 29°C / 15°C 240º 5kt 9700m - Scattered Clouds 4500ft 1012 - LZZI 221130Z 24005KT 9999 SCT045 29/15 Q1012
VFR 30°C / 16°C 2kt 9700m - Scattered Clouds 4300ft 1012 - LZZI 221100Z VRB02KT 9999 SCT043 30/16 Q1012

VFR

21°C / 17°C

[Mais]
Vento 2kt
Visibilidade 9700m
Tempo -
Nuvens Clouds and Visibility OK
Pressão 1016
Mudança -
Bruto LZZI 222230Z VRB02KT CAVOK 21/17 Q1016

VFR

22°C / 17°C

[Mais]
Vento 1kt
Visibilidade 9700m
Tempo -
Nuvens Clouds and Visibility OK
Pressão 1016
Mudança -
Bruto LZZI 222200Z VRB01KT CAVOK 22/17 Q1016

VFR

22°C / 16°C

[Mais]
Vento 2kt
Visibilidade 9700m
Tempo -
Nuvens Clouds and Visibility OK
Pressão 1016
Mudança -
Bruto LZZI 222130Z VRB02KT CAVOK 22/16 Q1016

VFR

23°C / 17°C

[Mais]
Vento 1kt
Visibilidade 9700m
Tempo -
Nuvens Clouds and Visibility OK
Pressão 1016
Mudança -
Bruto LZZI 222100Z VRB01KT CAVOK 23/17 Q1016

VFR

24°C / 16°C

[Mais]
Vento 20º variable 350º to 060º 4kt
Visibilidade 9700m
Tempo -
Nuvens Clouds and Visibility OK
Pressão 1016
Mudança -
Bruto LZZI 222030Z 02004KT 350V060 CAVOK 24/16 Q1016

VFR

25°C / 16°C

[Mais]
Vento 30º variable 360º to 060º 8kt
Visibilidade 9700m
Tempo -
Nuvens Clouds and Visibility OK
Pressão 1015
Mudança -
Bruto LZZI 222000Z 03008KT 360V060 CAVOK 25/16 Q1015

VFR

25°C / 16°C

[Mais]
Vento 70º variable 050º to 130º 10kt
Visibilidade 9700m
Tempo -
Nuvens Few Clouds 6000ft
Pressão 1015
Mudança -
Bruto LZZI 221930Z 07010KT 050V130 9999 FEW060 25/16 Q1015

VFR

25°C / 17°C

[Mais]
Vento 70º variable 340º to 130º 3kt
Visibilidade 9700m
Tempo -
Nuvens Few Clouds 5800ft
Pressão 1015
Mudança -
Bruto LZZI 221900Z 07003KT 340V130 9999 FEW058 25/17 Q1015

VFR

26°C / 16°C

[Mais]
Vento 3kt
Visibilidade 9700m
Tempo -
Nuvens Clouds and Visibility OK
Pressão 1014
Mudança -
Bruto LZZI 221830Z VRB03KT CAVOK 26/16 Q1014

VFR

27°C / 14°C

[Mais]
Vento 40º 5kt
Visibilidade 9700m
Tempo -
Nuvens Clouds and Visibility OK
Pressão 1013
Mudança -
Bruto LZZI 221800Z 04005KT CAVOK 27/14 Q1013

VFR

27°C / 17°C

[Mais]
Vento 2kt
Visibilidade 9700m
Tempo -
Nuvens Clouds and Visibility OK
Pressão 1013
Mudança -
Bruto LZZI 221730Z VRB02KT CAVOK 27/17 Q1013

VFR

27°C / 18°C

[Mais]
Vento 10º variable 340º to 040º 3kt
Visibilidade 9700m
Tempo -
Nuvens Clouds and Visibility OK
Pressão 1012
Mudança -
Bruto LZZI 221700Z 01003KT 340V040 CAVOK 27/18 Q1012

VFR

30°C / 14°C

[Mais]
Vento 10º variable 330º to 060º 4kt
Visibilidade 9700m
Tempo -
Nuvens Clouds and Visibility OK
Pressão 1012
Mudança -
Bruto LZZI 221630Z 01004KT 330V060 CAVOK 30/14 Q1012

VFR

31°C / 12°C

[Mais]
Vento 350º variable 320º to 030º 3kt
Visibilidade 9700m
Tempo -
Nuvens Clouds and Visibility OK
Pressão 1012
Mudança -
Bruto LZZI 221600Z 35003KT 320V030 CAVOK 31/12 Q1012

VFR

30°C / 13°C

[Mais]
Vento 350º variable 290º to 040º 4kt
Visibilidade 9700m
Tempo -
Nuvens Clouds and Visibility OK
Pressão 1012
Mudança -
Bruto LZZI 221530Z 35004KT 290V040 CAVOK 30/13 Q1012

VFR

30°C / 14°C

[Mais]
Vento 30º variable 360º to 060º 4kt
Visibilidade 9700m
Tempo -
Nuvens Clouds and Visibility OK
Pressão 1012
Mudança -
Bruto LZZI 221500Z 03004KT 360V060 CAVOK 30/14 Q1012

VFR

29°C / 13°C

[Mais]
Vento 2kt
Visibilidade 9700m
Tempo -
Nuvens Few Clouds 6000ft
Pressão 1012
Mudança -
Bruto LZZI 221430Z VRB02KT 9999 FEW060 29/13 Q1012

VFR

30°C / 16°C

[Mais]
Vento 250º variable 220º to 310º 5kt
Visibilidade 9700m
Tempo -
Nuvens Few Clouds 5800ft
Pressão 1012
Mudança -
Bruto LZZI 221400Z 25005KT 220V310 9999 FEW058 30/16 Q1012

VFR

30°C / 16°C

[Mais]
Vento 3kt
Visibilidade 9700m
Tempo -
Nuvens Scattered Clouds 5500ft
Pressão 1012
Mudança -
Bruto LZZI 221330Z VRB03KT 9999 SCT055 30/16 Q1012

VFR

30°C / 17°C

[Mais]
Vento 240º variable 200º to 290º 4kt
Visibilidade 9700m
Tempo -
Nuvens Scattered Clouds 5300ft
Pressão 1012
Mudança -
Bruto LZZI 221300Z 24004KT 200V290 9999 SCT053 30/17 Q1012

VFR

29°C / 15°C

[Mais]
Vento 230º variable 130º to 300º 5kt
Visibilidade 9700m
Tempo -
Nuvens Scattered Clouds 5000ft
Pressão 1012
Mudança -
Bruto LZZI 221230Z 23005KT 130V300 9999 SCT050 29/15 Q1012

VFR

29°C / 16°C

[Mais]
Vento 240º variable 220º to 290º 5kt
Visibilidade 9700m
Tempo -
Nuvens Scattered Clouds 4700ft
Pressão 1012
Mudança -
Bruto LZZI 221200Z 24005KT 220V290 9999 SCT047 29/16 Q1012

VFR

29°C / 15°C

[Mais]
Vento 240º 5kt
Visibilidade 9700m
Tempo -
Nuvens Scattered Clouds 4500ft
Pressão 1012
Mudança -
Bruto LZZI 221130Z 24005KT 9999 SCT045 29/15 Q1012

VFR

30°C / 16°C

[Mais]
Vento 2kt
Visibilidade 9700m
Tempo -
Nuvens Scattered Clouds 4300ft
Pressão 1012
Mudança -
Bruto LZZI 221100Z VRB02KT 9999 SCT043 30/16 Q1012

TAF para Hvozdnica (LZZI)

From till


From till Wind 30º 9kt. Visibility 9700m. Nil Significant Cloud.
Becoming from till

Bruto: TAF LZZI 222015Z 2221/2306 03009KT CAVOK BECMG 2222/2300 07004KT

Radar e precipitação nowcast para Hvozdnica

Chuvisco
Leve
Moderado
Forte
Muito forte
Granizo

O marcador do lugar é colocado em Hvozdnica. Esta animação mostra o radar de precipitação para o intervalo de tempo selecionado, bem como uma previsão de 2h. As cruzes de cor laranja indicam relâmpagos. Dados fornecidos por nowcast.de (disponível nos EUA, Europa e Austrália). A queda de neve suave ou ligeira pode ser invisível para o radar. A intensidade da precipitação é codificada por cores, variando de turquesa a vermelha.

Imagens atuais de satélite e precipitação para Hvozdnica, Eslováquia

O marcador de lugar é colocado em Hvozdnica. [Mais]

A imagem de satélite em tempo real combina luz visível durante o dia com radiação infravermelha durante a noite. À noite, a imagem não é escura, pois a radiação infravermelha pode detectar diferenças de temperatura. Infelizmente, nuvens baixas e neblina são difíceis de distinguir das temperaturas do solo e, portanto, podem ser quase invisíveis durante a noite. As imagens de satélite Meteosat para a Europa são atualizadas em tempo real a cada 5 minutos. GOES-16/GOES-17 ( América do Norte e do Sul) e Himawari (Ásia) são atualizadas a cada 10 minutos.

A precipitação é estimada a partir de radares e satélites. As estimativas de precipitação a partir de satélites são menos precisas à noite do que durante o dia.

© 2024 meteoblue, NOAA Satellites GOES-16 and EUMETSAT. Dados de relâmpagos fornecidos por nowcast.

Voltar ao início
×
Olá,
parece que você está usando um bloqueador de anúncios.

A publicidade é essencial para manter o nosso site gratuito com detalhes e precisão únicos.

Por favor approve www.meteoblue.com no seu bloqueador de anúncios ou considere a compra de um dos nossos produtos:

Já tem uma assinatura?
Então por favor login.